Time;durP1;ratioP1;P1;durP2;ratioP2;P2;SDS_P1;SDS_P2;PMS_P1;PMS_P2;Temp;Humidity;BMP_temperature;BMP_pressure;BME280_temperature;BME280_humidity;BME280_pressure;Samples;Min_cycle;Max_cycle;Signal;HPM_P1;HPM_P2
2021/03/21 00:00:39;;;;;;;6.77;1.70;;;;;;;3.81;89.48;101234.13;5030945;28;20119;-64
2021/03/21 00:03:05;;;;;;;8.07;1.85;;;;;;;3.84;89.36;101227.81;5027343;28;20049;-63
2021/03/21 00:05:31;;;;;;;9.45;2.10;;;;;;;3.83;89.27;101225.25;5047630;28;20516;-64
2021/03/21 00:08:03;;;;;;;4.43;1.63;;;;;;;3.83;89.81;101209.41;5031779;28;20036;-63
2021/03/21 00:10:30;;;;;;;7.05;2.65;;;;;;;3.86;90.07;101225.03;5031764;28;20033;-64
2021/03/21 00:12:57;;;;;;;6.00;1.85;;;;;;;3.81;90.16;101215.63;5030900;28;20466;-64
2021/03/21 00:15:23;;;;;;;5.13;1.85;;;;;;;3.81;90.36;101212.16;5030828;28;20588;-64
2021/03/21 00:17:49;;;;;;;7.75;2.95;;;;;;;3.77;90.67;101205.41;5031429;28;20045;-63
2021/03/21 00:20:16;;;;;;;10.05;3.20;;;;;;;3.76;90.81;101201.06;5031763;28;20048;-64
2021/03/21 00:22:41;;;;;;;8.55;1.83;;;;;;;3.80;91.05;101210.47;5030699;28;20038;-64
2021/03/21 00:25:14;;;;;;;4.67;1.77;;;;;;;3.79;90.87;101209.63;5029976;28;20033;-63
2021/03/21 00:27:40;;;;;;;7.32;2.00;;;;;;;3.77;91.07;101194.84;5031348;28;20744;-64
2021/03/21 00:30:10;;;;;;;6.85;2.00;;;;;;;3.77;90.85;101185.13;5030543;28;20081;-64
2021/03/21 00:32:35;;;;;;;5.40;1.42;;;;;;;3.76;90.81;101175.50;5047214;28;20052;-64
2021/03/21 00:35:01;;;;;;;6.60;1.97;;;;;;;3.80;90.93;101168.22;5030443;28;20037;-63
2021/03/21 00:37:27;;;;;;;6.38;1.92;;;;;;;3.81;90.79;101154.88;5030349;28;20494;-64
2021/03/21 00:39:52;;;;;;;7.57;2.40;;;;;;;3.86;90.53;101151.06;5030430;28;20176;-63
2021/03/21 00:42:17;;;;;;;8.13;2.10;;;;;;;3.83;90.59;101146.00;5047104;28;20496;-63
2021/03/21 00:44:43;;;;;;;4.43;1.67;;;;;;;3.88;90.47;101150.00;5031544;28;20420;-63
2021/03/21 00:47:08;;;;;;;13.73;3.17;;;;;;;3.91;90.17;101144.53;5031423;28;20045;-64
2021/03/21 00:49:33;;;;;;;5.30;2.50;;;;;;;3.96;89.95;101142.41;5030135;28;20034;-63
2021/03/21 00:51:59;;;;;;;7.68;2.17;;;;;;;3.92;89.79;101142.72;5030224;28;20029;-63
2021/03/21 00:54:25;;;;;;;8.70;4.00;;;;;;;3.96;89.96;101145.03;5031255;28;20476;-63
2021/03/21 00:56:50;;;;;;;7.50;2.23;;;;;;;3.96;90.31;101141.56;5030218;28;20045;-63
2021/03/21 00:59:15;;;;;;;7.57;3.30;;;;;;;3.93;90.31;101128.53;5031056;28;20357;-63
2021/03/21 01:01:41;;;;;;;10.00;2.87;;;;;;;3.93;90.78;101139.13;5046717;28;20425;-63
2021/03/21 01:04:06;;;;;;;8.27;2.50;;;;;;;3.93;91.10;101125.91;5046850;28;20044;-63
2021/03/21 01:06:33;;;;;;;8.98;3.13;;;;;;;3.89;91.32;101121.81;5030163;28;20041;-63
2021/03/21 01:09:00;;;;;;;;;;;;;;;3.88;91.77;101115.66;5031258;28;20045;-63
2021/03/21 01:11:33;;;;;;;8.23;3.22;;;;;;;3.87;91.69;101107.88;5031070;28;19975;-63
2021/03/21 01:14:00;;;;;;;8.77;2.90;;;;;;;3.90;92.08;101115.56;5031155;28;20044;-63
2021/03/21 01:16:32;;;;;;;13.77;2.72;;;;;;;3.91;92.12;101110.19;5030112;28;20041;-63
2021/03/21 01:18:59;;;;;;;8.38;2.28;;;;;;;3.91;92.15;101085.53;5030705;28;20042;-64
2021/03/21 01:21:26;;;;;;;10.10;2.85;;;;;;;3.90;92.41;101092.63;5029897;28;20084;-64
2021/03/21 01:23:52;;;;;;;10.98;2.95;;;;;;;3.93;92.47;101088.91;5031101;28;20045;-64
2021/03/21 01:26:21;;;;;;;6.80;3.20;;;;;;;3.92;92.53;101096.00;5031115;28;20141;-64
2021/03/21 01:28:47;;;;;;;7.80;3.05;;;;;;;3.96;92.52;101084.28;5030686;28;20026;-64
2021/03/21 01:31:16;;;;;;;7.50;2.58;;;;;;;3.98;92.38;101087.66;5031110;28;20064;-63
2021/03/21 01:33:41;;;;;;;7.95;2.60;;;;;;;4.02;92.44;101081.16;5030815;28;20052;-64
2021/03/21 01:36:12;;;;;;;6.57;2.13;;;;;;;4.05;92.02;101076.63;5030967;28;20045;-63
2021/03/21 01:38:38;;;;;;;5.72;2.97;;;;;;;4.02;92.08;101065.31;5034447;28;20052;-63
2021/03/21 01:41:07;;;;;;;14.40;3.10;;;;;;;4.03;92.17;101079.38;5033653;28;20041;-63
2021/03/21 01:43:36;;;;;;;6.85;4.05;;;;;;;4.10;91.95;101074.50;5034559;28;20284;-63
2021/03/21 01:46:03;;;;;;;8.80;2.75;;;;;;;4.07;92.00;101064.13;5033621;28;20041;-63
2021/03/21 01:48:43;;;;;;;6.45;2.65;;;;;;;4.08;92.14;101053.47;5033053;28;20041;-63
2021/03/21 01:51:15;;;;;;;7.85;2.40;;;;;;;4.10;91.99;101048.09;5033632;28;20030;-63
2021/03/21 01:53:43;;;;;;;9.82;3.58;;;;;;;4.14;92.09;101049.50;5033484;28;20041;-63
2021/03/21 01:56:11;;;;;;;3.72;2.10;;;;;;;4.10;92.02;101040.16;5033373;28;20037;-63
2021/03/21 01:58:37;;;;;;;4.32;2.30;;;;;;;4.12;92.20;101040.84;5049807;28;20034;-64
2021/03/21 02:01:18;;;;;;;9.20;2.10;;;;;;;4.10;91.94;101025.13;5034233;28;20033;-64
2021/03/21 02:03:43;;;;;;;4.03;2.20;;;;;;;4.11;91.92;101020.69;5040603;28;20051;-75
2021/03/21 02:06:37;;;;;;;2.85;1.88;;;;;;;4.08;91.93;101016.47;5034384;28;20128;-76
2021/03/21 02:09:17;;;;;;;4.35;1.85;;;;;;;4.17;91.69;101012.31;5049792;28;20037;-64
2021/03/21 02:12:01;;;;;;;4.40;1.80;;;;;;;4.13;91.69;101009.03;5049914;28;20033;-64
2021/03/21 02:14:45;;;;;;;5.70;1.60;;;;;;;4.19;91.70;100992.75;5034041;28;20045;-64
2021/03/21 02:17:38;;;;;;;2.88;1.58;;;;;;;4.22;91.15;100999.59;5033039;28;20087;-64
2021/03/21 02:20:12;;;;;;;3.50;1.55;;;;;;;4.17;91.14;101002.56;5033940;28;20041;-64
2021/03/21 02:22:49;;;;;;;4.35;2.20;;;;;;;4.20;91.06;100991.75;5049516;28;20132;-64
2021/03/21 02:25:33;;;;;;;5.45;2.58;;;;;;;4.21;91.05;100987.31;5032840;28;20040;-63
2021/03/21 02:28:15;;;;;;;3.60;1.98;;;;;;;4.22;91.12;100976.63;5049139;28;20029;-63
2021/03/21 02:30:44;;;;;;;6.18;2.58;;;;;;;4.22;91.02;100981.94;5033798;28;20029;-64
2021/03/21 02:33:18;;;;;;;3.17;1.70;;;;;;;4.22;91.04;100974.00;5033713;28;20153;-63
2021/03/21 02:35:59;;;;;;;4.47;1.88;;;;;;;4.16;91.33;100966.53;5033751;28;20108;-64
2021/03/21 02:38:37;;;;;;;3.72;1.77;;;;;;;4.20;91.16;100962.69;5032386;28;20056;-64
2021/03/21 02:41:17;;;;;;;7.68;2.22;;;;;;;4.21;91.42;100967.03;5033445;28;20037;-64
2021/03/21 02:43:49;;;;;;;5.03;1.92;;;;;;;4.17;91.52;100956.81;5033657;28;20071;-64
2021/03/21 02:46:25;;;;;;;3.28;1.83;;;;;;;4.17;91.52;100964.75;5049178;28;20049;-64
2021/03/21 02:49:16;;;;;;;12.35;3.13;;;;;;;4.19;91.79;100953.09;5032478;28;20037;-63
2021/03/21 02:51:46;;;;;;;4.07;2.20;;;;;;;4.14;92.01;100957.03;5021917;28;20038;-64
2021/03/21 02:54:19;;;;;;;8.63;2.63;;;;;;;4.13;92.17;100948.25;5033379;28;20068;-63
2021/03/21 02:56:52;;;;;;;4.18;2.20;;;;;;;4.10;92.42;100948.50;5032210;28;20041;-64
2021/03/21 02:59:25;;;;;;;7.85;3.15;;;;;;;4.09;92.44;100954.72;5032933;28;20516;-64
2021/03/21 03:01:54;;;;;;;4.20;2.10;;;;;;;4.10;92.36;100947.66;5048660;28;20454;-63
2021/03/21 03:04:35;;;;;;;5.95;2.70;;;;;;;4.10;92.40;100927.38;5032192;28;20041;-63
2021/03/21 03:07:16;;;;;;;6.18;2.53;;;;;;;4.13;92.07;100927.13;5048616;28;20041;-63
2021/03/21 03:09:46;;;;;;;4.28;2.60;;;;;;;4.18;91.65;100930.25;5032808;28;20037;-64
2021/03/21 03:12:41;;;;;;;7.43;2.35;;;;;;;4.18;91.52;100927.59;5033227;28;20443;-63
2021/03/21 03:15:12;;;;;;;8.27;3.33;;;;;;;4.21;91.39;100918.59;5032042;28;20059;-63
2021/03/21 03:17:42;;;;;;;6.65;1.88;;;;;;;4.21;91.18;100916.81;5032650;28;20047;-64
2021/03/21 03:20:13;;;;;;;7.95;2.00;;;;;;;4.21;91.21;100919.47;5032725;28;20515;-63
2021/03/21 03:23:00;;;;;;;6.57;2.78;;;;;;;4.22;91.09;100920.31;5048450;28;20116;-63
2021/03/21 03:25:34;;;;;;;6.85;2.35;;;;;;;4.25;90.77;100925.34;5031856;28;20045;-63
2021/03/21 03:28:30;;;;;;;10.02;2.33;;;;;;;4.28;90.47;100924.25;5048096;28;20049;-63
2021/03/21 03:31:14;;;;;;;9.23;2.10;;;;;;;4.25;90.74;100924.50;5032541;28;20112;-63
2021/03/21 03:33:39;;;;;;;6.47;2.33;;;;;;;4.27;90.33;100901.44;5032698;28;20098;-63
2021/03/21 03:36:11;;;;;;;8.13;1.90;;;;;;;4.20;90.28;100898.44;5032476;28;20038;-63
2021/03/21 03:38:38;;;;;;;16.00;2.10;;;;;;;4.26;89.67;100908.53;5047985;28;20033;-63
2021/03/21 03:41:24;;;;;;;10.18;2.72;;;;;;;4.28;88.98;100892.56;5032196;28;20033;-63
2021/03/21 03:43:52;;;;;;;9.23;3.15;;;;;;;4.32;88.19;100908.06;5032470;28;20184;-63
2021/03/21 03:46:38;;;;;;;11.75;2.00;;;;;;;4.30;88.17;100909.13;5032296;28;20037;-63
2021/03/21 03:49:27;;;;;;;8.65;1.95;;;;;;;4.31;87.03;100905.53;5047806;28;20045;-63
2021/03/21 03:52:06;;;;;;;15.00;2.10;;;;;;;4.32;86.02;100917.78;5032295;28;20064;-63
2021/03/21 03:54:36;;;;;;;10.52;2.53;;;;;;;4.28;86.02;100897.84;5032310;28;20041;-63
2021/03/21 03:57:14;;;;;;;11.35;3.28;;;;;;;4.31;86.23;100913.44;5031119;28;20037;-63
2021/03/21 04:00:08;;;;;;;7.00;1.85;;;;;;;4.31;84.99;100900.22;5030449;28;20037;-64
2021/03/21 04:02:59;;;;;;;17.08;4.32;;;;;;;4.27;84.35;100904.94;5031893;28;20045;-64
2021/03/21 04:05:33;;;;;;;14.95;2.63;;;;;;;4.28;84.58;100903.13;4994782;28;20053;-64
2021/03/21 04:08:42;;;;;;;14.75;2.88;;;;;;;4.25;83.98;100906.84;5030535;28;20043;-63
2021/03/21 04:11:35;;;;;;;16.15;2.45;;;;;;;4.27;81.74;100904.94;4951816;29;20077;-63
2021/03/21 04:14:33;;;;;;;18.33;3.40;;;;;;;4.18;81.42;100900.34;4951776;29;20485;-63
2021/03/21 04:17:30;;;;;;;25.70;4.68;;;;;;;4.15;80.17;100909.34;5023220;28;20131;-63
2021/03/21 04:20:22;;;;;;;16.90;5.47;;;;;;;4.07;79.88;100911.72;5017072;28;20056;-63
2021/03/21 04:22:54;;;;;;;25.48;5.07;;;;;;;4.00;80.52;100906.09;5027777;28;20046;-63
2021/03/21 04:25:25;;;;;;;32.30;5.00;;;;;;;4.01;79.95;100913.03;5047452;28;20041;-63
2021/03/21 04:27:57;;;;;;;25.70;6.05;;;;;;;4.00;79.77;100911.38;5031487;28;20354;-63
2021/03/21 04:30:34;;;;;;;20.60;4.32;;;;;;;3.97;80.67;100916.88;5030733;28;20040;-63
2021/03/21 04:33:02;;;;;;;24.73;6.13;;;;;;;3.89;80.40;100923.72;5031448;28;20037;-63
2021/03/21 04:35:38;;;;;;;29.55;6.28;;;;;;;3.81;80.69;100927.72;5030691;28;20033;-63
2021/03/21 04:38:17;;;;;;;28.08;5.97;;;;;;;3.85;79.92;100919.59;5031191;28;20446;-63
2021/03/21 04:40:44;;;;;;;35.25;5.97;;;;;;;3.76;79.39;100929.88;5031542;28;20043;-63
2021/03/21 04:43:27;;;;;;;40.03;6.45;;;;;;;3.75;79.28;100920.28;5031329;28;20080;-63
2021/03/21 04:45:56;;;;;;;24.38;4.63;;;;;;;3.70;78.81;100938.28;5031511;28;20422;-63
2021/03/21 04:48:24;;;;;;;25.27;5.03;;;;;;;3.69;77.85;100939.22;5046574;28;20370;-63
2021/03/21 04:50:58;;;;;;;26.85;6.25;;;;;;;3.63;76.23;100928.25;5030437;28;20370;-63
2021/03/21 04:53:38;;;;;;;34.30;6.53;;;;;;;3.58;76.04;100941.78;5030895;28;20124;-63
2021/03/21 04:56:21;;;;;;;32.00;6.13;;;;;;;3.57;75.71;100940.13;5029528;28;20037;-63
2021/03/21 04:58:52;;;;;;;42.90;8.07;;;;;;;3.51;75.27;100945.84;5030436;28;20343;-63
2021/03/21 05:01:24;;;;;;;46.88;8.15;;;;;;;3.44;75.31;100956.03;5046338;28;20091;-63
2021/03/21 05:04:04;;;;;;;29.05;7.63;;;;;;;3.42;75.25;100962.34;5030677;28;20041;-63
2021/03/21 05:06:49;;;;;;;37.72;6.65;;;;;;;3.34;75.95;100955.81;5029686;28;20136;-63
2021/03/21 05:09:21;;;;;;;43.53;7.60;;;;;;;3.36;75.33;100943.38;5030226;28;20116;-63
2021/03/21 05:12:01;;;;;;;40.35;7.85;;;;;;;3.27;74.92;100949.31;5031863;28;20079;-63
2021/03/21 05:14:39;;;;;;;31.13;7.20;;;;;;;3.27;75.64;100946.66;5035126;28;20037;-63
2021/03/21 05:17:17;;;;;;;39.78;7.25;;;;;;;3.30;75.67;100946.47;5034600;28;20029;-63
2021/03/21 05:19:54;;;;;;;41.45;9.38;;;;;;;3.30;75.30;100954.38;5033335;28;20108;-63
2021/03/21 05:22:42;;;;;;;53.50;8.40;;;;;;;3.31;75.30;100953.41;5034602;28;20430;-63
2021/03/21 05:25:30;;;;;;;35.25;6.55;;;;;;;3.31;74.78;100961.34;5034301;28;20099;-63
2021/03/21 05:28:05;;;;;;;40.30;7.68;;;;;;;3.31;74.56;100961.34;5033095;28;20421;-63
2021/03/21 05:30:34;;;;;;;53.58;9.02;;;;;;;3.28;74.55;100953.66;5050077;28;20041;-63
2021/03/21 05:33:01;;;;;;;34.50;6.50;;;;;;;3.19;75.22;100978.06;5034363;28;20049;-63
2021/03/21 05:35:30;;;;;;;49.40;9.10;;;;;;;3.21;75.85;100970.00;5049938;28;20438;-63
2021/03/21 05:38:21;;;;;;;49.10;5.97;;;;;;;3.14;75.95;100972.25;5050268;28;20517;-63
2021/03/21 05:41:18;;;;;;;43.17;8.15;;;;;;;3.12;76.56;100982.91;5034726;28;20512;-63
2021/03/21 05:44:02;;;;;;;39.72;6.13;;;;;;;3.44;80.63;100986.84;5034601;28;20038;-63
2021/03/21 05:46:52;;;;;;;43.13;7.40;;;;;;;3.68;75.41;100987.72;5034534;28;20033;-63
2021/03/21 05:49:46;;;;;;;32.03;6.47;;;;;;;3.65;74.75;100990.56;5033280;28;20128;-63
2021/03/21 05:52:50;;;;;;;47.38;10.55;;;;;;;3.30;75.60;100995.75;5034370;28;20092;-63
2021/03/21 05:55:46;;;;;;;44.05;7.93;;;;;;;3.02;76.27;100999.47;5049978;28;20038;-63
2021/03/21 05:58:36;;;;;;;42.80;6.32;;;;;;;2.93;76.46;101004.47;5033061;28;20053;-63
2021/03/21 06:01:26;;;;;;;42.72;7.85;;;;;;;2.77;77.15;101003.00;4993324;28;20386;-63
2021/03/21 06:04:13;;;;;;;48.80;7.55;;;;;;;2.83;77.16;101018.38;5049549;28;20029;-63
2021/03/21 06:06:52;;;;;;;32.67;8.05;;;;;;;2.72;77.51;101022.63;5032576;28;20076;-63
2021/03/21 06:09:50;;;;;;;48.70;8.65;;;;;;;2.79;77.11;101022.22;5033399;28;20442;-63
2021/03/21 06:12:49;;;;;;;50.05;9.27;;;;;;;2.77;76.81;101026.75;5047887;28;20370;-63
2021/03/21 06:15:47;;;;;;;39.80;7.80;;;;;;;2.79;76.54;101023.03;5031647;28;20037;-63
2021/03/21 06:18:30;;;;;;;46.75;8.98;;;;;;;3.00;75.22;101014.56;5033082;28;20044;-63
2021/03/21 06:21:46;;;;;;;49.17;7.50;;;;;;;3.43;74.05;101020.31;5032489;28;20037;-63
2021/03/21 06:24:27;;;;;;;41.72;7.25;;;;;;;3.61;73.67;101020.81;4951932;28;20494;-63
2021/03/21 06:27:02;;;;;;;30.10;7.07;;;;;;;3.82;72.04;101028.97;5023013;28;20136;-63
2021/03/21 06:29:58;;;;;;;37.23;8.40;;;;;;;4.28;71.01;101041.41;5031254;28;20041;-63
2021/03/21 06:32:46;;;;;;;45.47;7.60;;;;;;;4.19;70.16;101037.66;5047281;28;21314;-64
2021/03/21 06:35:36;;;;;;;35.15;6.70;;;;;;;4.16;70.08;101048.44;5031749;28;20041;-63
2021/03/21 06:38:20;;;;;;;51.78;8.73;;;;;;;4.58;68.86;101046.19;5029749;28;20049;-63
2021/03/21 06:41:09;;;;;;;55.00;9.40;;;;;;;4.87;67.63;101045.78;5048013;28;20331;-63
2021/03/21 06:43:50;;;;;;;30.52;6.53;;;;;;;4.70;68.43;101054.16;5048820;28;20060;-63
2021/03/21 06:46:44;;;;;;;43.50;8.57;;;;;;;4.73;68.03;101061.84;5032917;28;20050;-63
2021/03/21 06:49:43;;;;;;;36.97;6.70;;;;;;;4.84;67.33;101067.16;5031792;28;20033;-63
2021/03/21 06:52:23;;;;;;;38.47;8.35;;;;;;;4.74;67.27;101058.25;5033096;28;20047;-63
2021/03/21 06:55:03;;;;;;;37.60;7.55;;;;;;;5.17;65.87;101057.56;5031838;28;20041;-63
2021/03/21 06:57:55;;;;;;;48.95;8.73;;;;;;;4.75;68.06;101059.94;5031581;28;20064;-63
2021/03/21 07:00:42;;;;;;;28.30;6.00;;;;;;;5.13;67.03;101077.28;5032954;28;20038;-63
2021/03/21 07:03:35;;;;;;;33.83;7.43;;;;;;;5.41;66.18;101074.19;5032515;28;20033;-63
2021/03/21 07:06:06;;;;;;;35.40;8.57;;;;;;;5.83;65.64;101070.88;5032691;28;20038;-63
2021/03/21 07:09:08;;;;;;;39.33;8.23;;;;;;;5.63;64.86;101083.09;5047996;28;20072;-63
2021/03/21 07:12:07;;;;;;;30.17;6.25;;;;;;;5.65;65.06;101078.50;5032371;28;20128;-63
2021/03/21 07:15:08;;;;;;;46.50;7.68;;;;;;;6.08;64.16;101078.53;5031560;28;20469;-63
2021/03/21 07:17:42;;;;;;;24.80;6.35;;;;;;;6.08;63.29;101077.72;5047569;28;20041;-63
2021/03/21 07:20:40;;;;;;;34.90;6.20;;;;;;;6.25;62.47;101085.16;5048166;28;20029;-64
2021/03/21 07:23:35;;;;;;;21.17;6.40;;;;;;;6.23;61.63;101080.94;5047951;28;20045;-63
2021/03/21 07:26:18;;;;;;;30.35;8.88;;;;;;;6.23;62.08;101083.59;5047880;28;20397;-63
2021/03/21 07:29:11;;;;;;;29.33;6.15;;;;;;;6.38;62.88;101092.09;5032399;28;20076;-64
2021/03/21 07:31:58;;;;;;;29.27;7.53;;;;;;;6.24;61.64;101093.22;5032220;28;20088;-63
2021/03/21 07:34:49;;;;;;;33.88;6.82;;;;;;;6.43;62.26;101097.84;5047550;28;20450;-64
2021/03/21 07:37:33;;;;;;;27.33;6.80;;;;;;;6.66;61.39;101110.03;5031133;28;20462;-63
2021/03/21 07:40:26;;;;;;;37.72;6.70;;;;;;;6.80;60.98;101116.00;5047783;28;20049;-64
2021/03/21 07:43:24;;;;;;;21.65;5.03;;;;;;;6.94;60.17;101121.00;5032407;28;20034;-63
2021/03/21 07:46:10;;;;;;;37.92;6.65;;;;;;;6.75;60.44;101119.88;4987835;28;20053;-64
2021/03/21 07:49:11;;;;;;;27.55;6.68;;;;;;;7.03;60.69;101122.88;5047342;28;20037;-63
2021/03/21 07:51:58;;;;;;;21.05;4.70;;;;;;;7.26;58.81;101109.41;5031843;28;20029;-64
2021/03/21 07:54:37;;;;;;;20.95;4.00;;;;;;;7.72;57.00;101105.41;5047240;28;20080;-63
2021/03/21 07:57:26;;;;;;;26.67;5.15;;;;;;;7.85;57.78;101113.16;5047290;28;20421;-63
2021/03/21 07:59:51;;;;;;;22.35;5.38;;;;;;;7.85;57.78;101121.97;5031561;28;20458;-63
2021/03/21 08:02:24;;;;;;;21.50;5.78;;;;;;;7.51;56.43;101116.94;5047269;28;20037;-64
2021/03/21 08:04:50;;;;;;;17.00;4.00;;;;;;;7.48;57.83;101124.38;5031671;28;20032;-63
2021/03/21 08:07:33;;;;;;;26.25;4.50;;;;;;;7.34;58.76;101125.56;5031650;28;20043;-63
2021/03/21 08:09:59;;;;;;;26.77;4.28;;;;;;;7.16;57.78;101125.31;5031515;28;20041;-64
2021/03/21 08:12:39;;;;;;;20.63;5.32;;;;;;;7.00;57.88;101128.44;5031662;28;20492;-63
2021/03/21 08:15:08;;;;;;;15.30;4.68;;;;;;;7.46;57.74;101127.13;5047186;28;20035;-64
2021/03/21 08:17:41;;;;;;;27.08;6.63;;;;;;;7.72;57.79;101124.03;5030994;28;20458;-64
2021/03/21 08:20:23;;;;;;;20.10;5.00;;;;;;;7.22;57.32;101127.44;5031220;28;20043;-63
2021/03/21 08:22:50;;;;;;;21.83;5.32;;;;;;;6.89;58.78;101134.66;5031317;28;20230;-63
2021/03/21 08:25:25;;;;;;;22.63;5.10;;;;;;;7.21;57.92;101133.75;5046896;28;20041;-63
2021/03/21 08:27:53;;;;;;;25.33;4.60;;;;;;;7.17;58.57;101157.06;5029897;28;20037;-63
2021/03/21 08:30:21;;;;;;;20.60;5.07;;;;;;;6.88;60.08;101148.91;5030216;28;20041;-64
2021/03/21 08:33:00;;;;;;;29.70;4.93;;;;;;;7.50;57.04;101156.97;5046663;28;20040;-64
2021/03/21 08:35:30;;;;;;;19.33;3.78;;;;;;;7.54;57.14;101153.06;5031118;28;20107;-63
2021/03/21 08:38:17;;;;;;;22.95;5.30;;;;;;;7.79;56.52;101157.91;5030808;28;20084;-63
2021/03/21 08:40:44;;;;;;;19.23;3.88;;;;;;;8.07;55.97;101155.47;5030884;28;20099;-64
2021/03/21 08:43:09;;;;;;;;;;;;;;;8.09;55.75;101171.31;5030360;28;20051;-64
2021/03/21 08:45:45;;;;;;;;;;;;;;;8.54;54.79;101163.69;5031445;28;19995;-64
2021/03/21 08:48:11;;;;;;;23.58;4.25;;;;;;;8.37;54.63;101172.34;5046199;28;20016;-63
2021/03/21 08:50:41;;;;;;;18.90;4.27;;;;;;;8.12;55.61;101184.31;5030944;28;20116;-64
2021/03/21 08:53:22;;;;;;;23.30;4.68;;;;;;;8.11;55.18;101169.34;5030898;28;20029;-64
2021/03/21 08:55:47;;;;;;;19.63;4.40;;;;;;;8.50;53.74;101183.59;5046351;28;20045;-64
2021/03/21 08:58:24;;;;;;;20.40;3.60;;;;;;;8.19;56.07;101183.66;5030659;28;20043;-64
2021/03/21 09:00:49;;;;;;;21.05;5.63;;;;;;;7.91;57.00;101195.03;5029858;28;20044;-64
2021/03/21 09:03:26;;;;;;;20.37;4.03;;;;;;;7.85;55.57;101188.44;5030737;28;20034;-64
2021/03/21 09:05:55;;;;;;;18.63;3.70;;;;;;;7.95;55.95;101215.91;5030661;28;20037;-64
2021/03/21 09:08:30;;;;;;;23.70;4.15;;;;;;;8.48;55.00;101219.31;5046283;28;20044;-64
2021/03/21 09:10:59;;;;;;;21.63;5.72;;;;;;;8.24;54.54;101199.19;5030629;28;20042;-64
2021/03/21 09:13:29;;;;;;;24.27;5.30;;;;;;;8.60;54.63;101211.06;5030645;28;20064;-64
2021/03/21 09:15:54;;;;;;;20.48;5.53;;;;;;;7.61;56.62;101205.53;5029760;28;20053;-63
2021/03/21 09:18:29;;;;;;;19.92;4.35;;;;;;;7.86;55.79;101222.00;5030388;28;20044;-63
2021/03/21 09:21:17;;;;;;;29.98;5.47;;;;;;;7.51;57.31;101233.84;5046363;28;20378;-64
2021/03/21 09:24:11;;;;;;;13.88;3.70;;;;;;;8.25;56.01;101240.78;5046329;28;20080;-64
2021/03/21 09:26:44;;;;;;;23.15;4.93;;;;;;;8.70;54.94;101258.97;5030543;28;20061;-64
2021/03/21 09:29:32;;;;;;;23.30;4.80;;;;;;;8.23;56.17;101242.72;5030293;28;20374;-64
2021/03/21 09:32:20;;;;;;;23.20;4.88;;;;;;;7.82;55.70;101250.69;5030528;28;20033;-64
2021/03/21 09:34:59;;;;;;;22.05;4.50;;;;;;;7.41;56.38;101240.94;5046018;28;20375;-63
2021/03/21 09:37:27;;;;;;;20.35;5.82;;;;;;;7.17;58.43;101222.59;5030452;28;20045;-64
2021/03/21 09:40:43;;;;;;;20.00;4.05;;;;;;;6.76;58.55;101222.41;5030244;28;20034;-64
2021/03/21 09:43:14;;;;;;;18.45;3.90;;;;;;;7.00;58.21;101229.31;4996839;28;20195;-64
2021/03/21 09:45:51;;;;;;;29.55;4.32;;;;;;;7.08;58.30;101242.78;5045940;28;20045;-64
2021/03/21 09:48:56;;;;;;;20.55;4.38;;;;;;;7.11;58.07;101241.69;5030016;28;20045;-63
2021/03/21 09:51:53;;;;;;;13.23;4.57;;;;;;;6.81;59.34;101245.06;5029010;28;20063;-64
2021/03/21 09:54:31;;;;;;;13.40;3.13;;;;;;;7.04;58.37;101230.72;5030412;28;20065;-64
2021/03/21 09:56:59;;;;;;;22.13;4.63;;;;;;;7.14;58.17;101239.63;5029290;28;20067;-64
2021/03/21 09:59:47;;;;;;;26.15;5.57;;;;;;;7.48;58.45;101260.69;5032029;28;20107;-64
2021/03/21 10:02:21;;;;;;;16.08;4.78;;;;;;;7.57;58.18;101270.53;5033835;28;20054;-64
2021/03/21 10:04:57;;;;;;;21.65;5.07;;;;;;;7.47;58.52;101264.34;5049632;28;20029;-64
2021/03/21 10:07:35;;;;;;;13.02;3.13;;;;;;;7.19;58.61;101261.34;5033857;28;20068;-64
2021/03/21 10:10:04;;;;;;;17.70;4.45;;;;;;;7.35;57.00;101273.31;5032828;28;20037;-64
2021/03/21 10:12:30;;;;;;;22.02;3.78;;;;;;;7.20;57.43;101278.09;5033574;28;20124;-64
2021/03/21 10:15:08;;;;;;;17.90;4.70;;;;;;;7.11;58.18;101278.88;5032659;28;20129;-63
2021/03/21 10:17:33;;;;;;;14.55;3.10;;;;;;;7.29;56.87;101287.13;5033330;28;20546;-64
2021/03/21 10:19:59;;;;;;;18.53;4.47;;;;;;;7.43;57.06;101289.47;5049487;28;20049;-64
2021/03/21 10:22:24;;;;;;;10.07;2.60;;;;;;;7.55;56.24;101293.75;5032568;28;20375;-64
2021/03/21 10:24:57;;;;;;;12.03;3.10;;;;;;;8.04;56.71;101292.22;5033504;28;20045;-64
2021/03/21 10:27:34;;;;;;;17.52;3.78;;;;;;;8.95;54.08;101294.06;5049104;28;20045;-64
2021/03/21 10:30:24;;;;;;;17.17;5.45;;;;;;;9.34;53.81;101299.38;5049183;28;20037;-64
2021/03/21 10:33:29;;;;;;;13.85;3.35;;;;;;;9.17;51.43;101307.09;5049161;28;20112;-64
2021/03/21 10:35:56;;;;;;;11.70;3.22;;;;;;;9.50;50.60;101297.00;5033331;28;20103;-64
2021/03/21 10:38:40;;;;;;;;;;;;;;;9.54;50.39;101300.22;5032530;28;20429;-64
2021/03/21 10:41:06;;;;;;;16.17;3.85;;;;;;;9.76;49.66;101313.22;5033139;28;19913;-64
2021/03/21 10:43:31;;;;;;;;;;;;;;;9.40;51.75;101304.16;5049392;28;20073;-64
2021/03/21 10:45:57;;;;;;;;;;;;;;;9.40;51.66;101302.34;5033465;28;19959;-64
2021/03/21 10:48:25;;;;;;;15.67;3.27;;;;;;;9.05;52.11;101302.91;5032796;28;19924;-64
2021/03/21 10:51:06;;;;;;;21.13;3.72;;;;;;;9.52;50.94;101303.03;5048613;28;20048;-64
2021/03/21 10:53:37;;;;;;;13.60;3.53;;;;;;;9.45;49.77;101307.25;5032972;28;20051;-64
2021/03/21 10:56:23;;;;;;;18.67;3.42;;;;;;;9.80;50.89;101313.78;5048364;28;20128;-64
2021/03/21 10:59:08;;;;;;;20.17;3.95;;;;;;;9.74;49.62;101304.56;5031595;28;20510;-64
2021/03/21 11:01:42;;;;;;;12.75;4.13;;;;;;;9.21;49.31;101305.84;5032953;28;20046;-64
2021/03/21 11:04:22;;;;;;;19.00;3.75;;;;;;;9.94;50.03;101313.34;5032824;28;20473;-64
2021/03/21 11:07:09;;;;;;;11.52;3.60;;;;;;;9.68;50.19;101316.63;5048299;28;20045;-64
2021/03/21 11:09:35;;;;;;;18.08;4.68;;;;;;;9.87;49.45;101312.22;5031973;28;20240;-64
2021/03/21 11:12:05;;;;;;;17.08;2.70;;;;;;;9.73;49.44;101311.69;5032741;28;20138;-64
2021/03/21 11:14:37;;;;;;;9.18;2.72;;;;;;;9.60;49.46;101308.50;5032649;28;20045;-64
2021/03/21 11:17:17;;;;;;;10.90;2.90;;;;;;;10.47;46.85;101311.91;5031484;28;20030;-64
2021/03/21 11:19:52;;;;;;;16.10;3.42;;;;;;;9.72;47.59;101317.19;5032207;28;20087;-64
2021/03/21 11:22:25;;;;;;;17.30;3.78;;;;;;;10.38;47.04;101321.66;5032216;28;20463;-64
2021/03/21 11:24:50;;;;;;;13.32;3.40;;;;;;;10.48;46.86;101309.09;5032382;28;20029;-64
2021/03/21 11:27:25;;;;;;;19.27;3.67;;;;;;;10.72;47.07;101311.22;5032416;28;20033;-64
2021/03/21 11:29:51;;;;;;;16.27;3.53;;;;;;;10.54;46.89;101305.84;5032214;28;20029;-64
2021/03/21 11:32:21;;;;;;;16.60;3.70;;;;;;;10.90;47.68;101311.22;5032280;28;20363;-64
2021/03/21 11:35:08;;;;;;;14.02;3.03;;;;;;;10.48;46.40;101310.91;5047882;28;20113;-64
2021/03/21 11:37:39;;;;;;;10.75;2.30;;;;;;;11.31;45.32;101314.31;5031954;28;20052;-64
2021/03/21 11:40:34;;;;;;;10.93;2.63;;;;;;;11.81;43.01;101305.66;5030978;28;20415;-65
2021/03/21 11:43:29;;;;;;;10.27;3.08;;;;;;;12.54;42.14;101311.63;5036389;28;20080;-65
2021/03/21 11:46:12;;;;;;;9.82;2.60;;;;;;;12.39;41.54;101319.44;5032423;28;20045;-65
2021/03/21 11:48:39;;;;;;;9.43;2.72;;;;;;;11.97;43.14;101315.69;5031610;28;20060;-65
2021/03/21 11:51:05;;;;;;;14.38;3.20;;;;;;;13.14;41.14;101316.81;5031905;28;20505;-65
2021/03/21 11:53:35;;;;;;;13.23;3.47;;;;;;;12.68;40.56;101325.22;5031938;28;20029;-65
2021/03/21 11:56:24;;;;;;;15.13;3.38;;;;;;;13.23;41.80;101331.91;5047490;28;20120;-65
2021/03/21 11:59:10;;;;;;;13.75;2.72;;;;;;;13.73;40.04;101314.00;5029966;28;20478;-65
2021/03/21 12:01:35;;;;;;;15.38;3.00;;;;;;;13.40;38.70;101319.38;5047273;28;20052;-65
2021/03/21 12:04:02;;;;;;;14.17;3.10;;;;;;;13.87;38.48;101315.97;5047284;28;20041;-65
2021/03/21 12:06:45;;;;;;;12.57;3.10;;;;;;;13.18;39.72;101326.19;5031623;28;20106;-65
2021/03/21 12:09:30;;;;;;;12.32;2.25;;;;;;;12.94;39.53;101332.34;5030180;28;20044;-65
2021/03/21 12:12:00;;;;;;;15.37;3.23;;;;;;;12.72;38.86;101338.31;5047162;28;20041;-65
2021/03/21 12:14:32;;;;;;;9.73;1.88;;;;;;;13.17;38.81;101324.50;5031509;28;20417;-65
2021/03/21 12:17:23;;;;;;;7.30;2.20;;;;;;;13.30;38.20;101330.25;5047124;28;20037;-65